sensor_id;sensor_type;location;lat;lon;timestamp;pressure;altitude;pressure_sealevel;temperature;humidity
71970;BME280;59838;52.152;5.436;2023-05-31T00:02:26;102832.09;;;10.31;100.00
71970;BME280;59838;52.152;5.436;2023-05-31T00:04:52;102835.78;;;10.28;100.00
71970;BME280;59838;52.152;5.436;2023-05-31T00:07:19;102833.88;;;10.30;100.00
71970;BME280;59838;52.152;5.436;2023-05-31T00:09:45;102832.75;;;10.23;100.00
71970;BME280;59838;52.152;5.436;2023-05-31T00:12:12;102834.53;;;10.22;100.00
71970;BME280;59838;52.152;5.436;2023-05-31T00:14:38;102842.72;;;10.18;100.00
71970;BME280;59838;52.152;5.436;2023-05-31T00:17:05;102836.25;;;10.12;100.00
71970;BME280;59838;52.152;5.436;2023-05-31T00:19:52;102839.69;;;10.13;100.00
71970;BME280;59838;52.152;5.436;2023-05-31T00:22:18;102836.78;;;10.06;100.00
71970;BME280;59838;52.152;5.436;2023-05-31T00:24:44;102833.59;;;10.02;100.00
71970;BME280;59838;52.152;5.436;2023-05-31T00:27:11;102842.81;;;10.06;100.00
71970;BME280;59838;52.152;5.436;2023-05-31T00:29:37;102840.47;;;10.03;100.00
71970;BME280;59838;52.152;5.436;2023-05-31T00:32:04;102844.00;;;10.02;100.00
71970;BME280;59838;52.152;5.436;2023-05-31T00:34:31;102842.50;;;10.00;100.00
71970;BME280;59838;52.152;5.436;2023-05-31T00:36:57;102829.91;;;9.95;100.00
71970;BME280;59838;52.152;5.436;2023-05-31T00:39:24;102831.81;;;9.93;100.00
71970;BME280;59838;52.152;5.436;2023-05-31T00:41:50;102832.06;;;9.90;100.00
71970;BME280;59838;52.152;5.436;2023-05-31T00:44:17;102834.78;;;9.88;100.00
71970;BME280;59838;52.152;5.436;2023-05-31T00:46:43;102839.41;;;9.85;100.00
71970;BME280;59838;52.152;5.436;2023-05-31T00:49:10;102842.97;;;9.84;100.00
71970;BME280;59838;52.152;5.436;2023-05-31T00:51:37;102838.69;;;9.83;100.00
71970;BME280;59838;52.152;5.436;2023-05-31T00:54:03;102835.00;;;9.76;100.00
71970;BME280;59838;52.152;5.436;2023-05-31T00:56:30;102834.44;;;9.72;100.00
71970;BME280;59838;52.152;5.436;2023-05-31T00:58:59;102837.72;;;9.74;100.00
71970;BME280;59838;52.152;5.436;2023-05-31T01:01:26;102835.00;;;9.76;100.00
71970;BME280;59838;52.152;5.436;2023-05-31T01:03:54;102835.94;;;9.75;100.00
71970;BME280;59838;52.152;5.436;2023-05-31T01:06:22;102825.91;;;9.70;100.00
71970;BME280;59838;52.152;5.436;2023-05-31T01:08:53;102839.03;;;9.68;100.00
71970;BME280;59838;52.152;5.436;2023-05-31T01:11:29;102840.94;;;9.66;100.00
71970;BME280;59838;52.152;5.436;2023-05-31T01:16:54;102833.41;;;9.63;100.00
71970;BME280;59838;52.152;5.436;2023-05-31T01:19:40;102838.97;;;9.59;100.00
71970;BME280;59838;52.152;5.436;2023-05-31T01:25:21;102846.31;;;9.54;100.00
71970;BME280;59838;52.152;5.436;2023-05-31T01:27:53;102843.28;;;9.48;100.00
71970;BME280;59838;52.152;5.436;2023-05-31T01:30:21;102840.81;;;9.47;100.00
71970;BME280;59838;52.152;5.436;2023-05-31T01:32:48;102836.72;;;9.44;100.00
71970;BME280;59838;52.152;5.436;2023-05-31T01:35:16;102844.25;;;9.36;100.00
71970;BME280;59838;52.152;5.436;2023-05-31T01:37:42;102827.56;;;9.29;100.00
71970;BME280;59838;52.152;5.436;2023-05-31T01:40:10;102826.75;;;9.28;100.00
71970;BME280;59838;52.152;5.436;2023-05-31T01:42:37;102840.66;;;9.27;100.00
71970;BME280;59838;52.152;5.436;2023-05-31T01:45:04;102842.31;;;9.28;100.00
71970;BME280;59838;52.152;5.436;2023-05-31T01:47:31;102841.47;;;9.28;100.00
71970;BME280;59838;52.152;5.436;2023-05-31T01:50:00;102835.47;;;9.27;100.00
71970;BME280;59838;52.152;5.436;2023-05-31T01:52:27;102843.94;;;9.29;100.00
71970;BME280;59838;52.152;5.436;2023-05-31T01:54:53;102842.81;;;9.22;100.00
71970;BME280;59838;52.152;5.436;2023-05-31T01:57:21;102834.09;;;9.23;100.00
71970;BME280;59838;52.152;5.436;2023-05-31T01:59:48;102842.00;;;9.22;100.00
71970;BME280;59838;52.152;5.436;2023-05-31T02:02:16;102837.88;;;9.19;100.00
71970;BME280;59838;52.152;5.436;2023-05-31T02:04:43;102835.50;;;9.16;100.00
71970;BME280;59838;52.152;5.436;2023-05-31T02:07:09;102834.81;;;9.14;100.00
71970;BME280;59838;52.152;5.436;2023-05-31T02:09:39;102837.66;;;9.11;100.00
71970;BME280;59838;52.152;5.436;2023-05-31T02:12:05;102832.72;;;9.08;100.00
71970;BME280;59838;52.152;5.436;2023-05-31T02:14:32;102829.31;;;9.07;100.00
71970;BME280;59838;52.152;5.436;2023-05-31T02:16:58;102827.09;;;9.03;100.00
71970;BME280;59838;52.152;5.436;2023-05-31T02:19:25;102834.16;;;9.01;100.00
71970;BME280;59838;52.152;5.436;2023-05-31T02:21:52;102829.22;;;8.98;100.00
71970;BME280;59838;52.152;5.436;2023-05-31T02:24:18;102830.28;;;8.95;100.00
71970;BME280;59838;52.152;5.436;2023-05-31T02:26:45;102828.75;;;8.92;100.00
71970;BME280;59838;52.152;5.436;2023-05-31T02:29:11;102837.94;;;8.96;100.00
71970;BME280;59838;52.152;5.436;2023-05-31T02:31:38;102833.00;;;8.93;100.00
71970;BME280;59838;52.152;5.436;2023-05-31T02:34:05;102836.78;;;8.89;100.00
71970;BME280;59838;52.152;5.436;2023-05-31T02:36:32;102831.13;;;8.84;100.00
71970;BME280;59838;52.152;5.436;2023-05-31T02:38:58;102825.94;;;8.84;100.00
71970;BME280;59838;52.152;5.436;2023-05-31T02:41:25;102822.19;;;8.77;100.00
71970;BME280;59838;52.152;5.436;2023-05-31T02:43:51;102827.63;;;8.74;100.00
71970;BME280;59838;52.152;5.436;2023-05-31T02:46:18;102822.81;;;8.69;100.00
71970;BME280;59838;52.152;5.436;2023-05-31T02:48:44;102823.75;;;8.68;100.00
71970;BME280;59838;52.152;5.436;2023-05-31T02:51:11;102822.91;;;8.68;100.00
71970;BME280;59838;52.152;5.436;2023-05-31T02:53:38;102823.66;;;8.70;100.00
71970;BME280;59838;52.152;5.436;2023-05-31T02:56:08;102821.28;;;8.67;100.00
71970;BME280;59838;52.152;5.436;2023-05-31T02:58:34;102815.38;;;8.65;100.00
71970;BME280;59838;52.152;5.436;2023-05-31T03:01:01;102823.03;;;8.66;100.00
71970;BME280;59838;52.152;5.436;2023-05-31T03:03:28;102821.53;;;8.64;100.00
71970;BME280;59838;52.152;5.436;2023-05-31T03:05:54;102821.66;;;8.62;100.00
71970;BME280;59838;52.152;5.436;2023-05-31T03:08:21;102819.19;;;8.60;100.00
71970;BME280;59838;52.152;5.436;2023-05-31T03:10:47;102812.22;;;8.61;100.00
71970;BME280;59838;52.152;5.436;2023-05-31T03:13:13;102813.41;;;8.57;100.00
71970;BME280;59838;52.152;5.436;2023-05-31T03:15:41;102814.34;;;8.56;100.00
71970;BME280;59838;52.152;5.436;2023-05-31T03:18:07;102811.88;;;8.54;100.00
71970;BME280;59838;52.152;5.436;2023-05-31T03:20:34;102805.88;;;8.54;100.00
71970;BME280;59838;52.152;5.436;2023-05-31T03:23:01;102811.19;;;8.52;100.00
71970;BME280;59838;52.152;5.436;2023-05-31T03:25:27;102810.34;;;8.52;100.00
71970;BME280;59838;52.152;5.436;2023-05-31T03:27:54;102809.53;;;8.51;100.00
71970;BME280;59838;52.152;5.436;2023-05-31T03:30:21;102814.72;;;8.51;100.00
71970;BME280;59838;52.152;5.436;2023-05-31T03:32:47;102808.59;;;8.52;100.00
71970;BME280;59838;52.152;5.436;2023-05-31T03:35:14;102806.69;;;8.54;100.00
71970;BME280;59838;52.152;5.436;2023-05-31T03:37:40;102819.53;;;8.56;100.00
71970;BME280;59838;52.152;5.436;2023-05-31T03:40:07;102808.25;;;8.57;100.00
71970;BME280;59838;52.152;5.436;2023-05-31T03:42:35;102826.72;;;8.64;100.00
71970;BME280;59838;52.152;5.436;2023-05-31T03:45:02;102822.91;;;8.68;100.00
71970;BME280;59838;52.152;5.436;2023-05-31T03:47:28;102816.22;;;8.76;100.00
71970;BME280;59838;52.152;5.436;2023-05-31T03:49:55;102817.78;;;9.00;100.00
71970;BME280;59838;52.152;5.436;2023-05-31T03:52:21;102814.06;;;9.14;100.00
71970;BME280;59838;52.152;5.436;2023-05-31T03:54:48;102830.81;;;9.10;100.00
71970;BME280;59838;52.152;5.436;2023-05-31T03:57:14;102831.19;;;9.05;100.00
71970;BME280;59838;52.152;5.436;2023-05-31T03:59:41;102840.16;;;9.01;100.00
71970;BME280;59838;52.152;5.436;2023-05-31T04:02:08;102844.03;;;9.07;100.00
71970;BME280;59838;52.152;5.436;2023-05-31T04:04:34;102843.41;;;9.14;100.00
71970;BME280;59838;52.152;5.436;2023-05-31T04:07:01;102843.06;;;9.19;100.00
71970;BME280;59838;52.152;5.436;2023-05-31T04:09:28;102838.88;;;9.28;100.00
71970;BME280;59838;52.152;5.436;2023-05-31T04:11:55;102834.13;;;9.44;100.00
71970;BME280;59838;52.152;5.436;2023-05-31T04:14:22;102832.56;;;9.84;100.00
71970;BME280;59838;52.152;5.436;2023-05-31T04:16:49;102829.75;;;10.28;100.00
71970;BME280;59838;52.152;5.436;2023-05-31T04:19:15;102837.56;;;10.68;100.00
71970;BME280;59838;52.152;5.436;2023-05-31T04:21:42;102837.22;;;11.02;100.00
71970;BME280;59838;52.152;5.436;2023-05-31T04:24:10;102827.75;;;11.21;99.82
71970;BME280;59838;52.152;5.436;2023-05-31T04:26:36;102830.63;;;11.47;97.91
71970;BME280;59838;52.152;5.436;2023-05-31T04:29:03;102823.34;;;11.60;96.25
71970;BME280;59838;52.152;5.436;2023-05-31T04:31:30;102824.41;;;11.67;95.21
71970;BME280;59838;52.152;5.436;2023-05-31T04:34:17;102824.66;;;11.74;94.04
71970;BME280;59838;52.152;5.436;2023-05-31T04:36:45;102828.13;;;12.12;93.49
71970;BME280;59838;52.152;5.436;2023-05-31T04:39:16;102830.31;;;12.17;92.01
71970;BME280;59838;52.152;5.436;2023-05-31T04:41:43;102825.66;;;12.66;90.06
71970;BME280;59838;52.152;5.436;2023-05-31T04:44:10;102822.81;;;12.77;88.50
71970;BME280;59838;52.152;5.436;2023-05-31T04:46:37;102823.50;;;13.15;88.00
71970;BME280;59838;52.152;5.436;2023-05-31T04:49:07;102832.81;;;13.36;85.81
71970;BME280;59838;52.152;5.436;2023-05-31T04:51:33;102824.34;;;13.60;85.60
71970;BME280;59838;52.152;5.436;2023-05-31T04:54:00;102829.00;;;13.75;84.18
71970;BME280;59838;52.152;5.436;2023-05-31T04:56:27;102832.97;;;14.21;82.34
71970;BME280;59838;52.152;5.436;2023-05-31T04:58:53;102829.81;;;14.01;81.13
71970;BME280;59838;52.152;5.436;2023-05-31T05:01:20;102828.50;;;14.05;81.62
71970;BME280;59838;52.152;5.436;2023-05-31T05:03:47;102833.75;;;14.48;80.33
71970;BME280;59838;52.152;5.436;2023-05-31T05:06:15;102829.88;;;14.69;78.53
71970;BME280;59838;52.152;5.436;2023-05-31T05:08:43;102837.97;;;14.41;79.36
71970;BME280;59838;52.152;5.436;2023-05-31T05:11:09;102840.84;;;14.72;78.92
71970;BME280;59838;52.152;5.436;2023-05-31T05:13:36;102824.97;;;14.74;78.42
71970;BME280;59838;52.152;5.436;2023-05-31T05:16:03;102834.13;;;14.61;78.04
71970;BME280;59838;52.152;5.436;2023-05-31T05:18:30;102834.81;;;14.80;78.66
71970;BME280;59838;52.152;5.436;2023-05-31T05:20:57;102825.81;;;15.40;76.11
71970;BME280;59838;52.152;5.436;2023-05-31T05:23:24;102825.47;;;15.51;75.28
71970;BME280;59838;52.152;5.436;2023-05-31T05:25:50;102832.97;;;15.63;74.65
71970;BME280;59838;52.152;5.436;2023-05-31T05:28:17;102836.94;;;15.50;74.44
71970;BME280;59838;52.152;5.436;2023-05-31T05:30:43;102835.09;;;15.84;73.79
71970;BME280;59838;52.152;5.436;2023-05-31T05:33:11;102830.53;;;15.78;74.13
71970;BME280;59838;52.152;5.436;2023-05-31T05:35:38;102823.69;;;16.08;73.48
71970;BME280;59838;52.152;5.436;2023-05-31T05:38:04;102824.72;;;15.99;72.13
71970;BME280;59838;52.152;5.436;2023-05-31T05:40:31;102830.63;;;16.32;72.37
71970;BME280;59838;52.152;5.436;2023-05-31T05:42:57;102826.41;;;16.31;71.68
71970;BME280;59838;52.152;5.436;2023-05-31T05:45:26;102823.97;;;16.76;70.93
71970;BME280;59838;52.152;5.436;2023-05-31T05:47:53;102826.41;;;16.86;70.47
71970;BME280;59838;52.152;5.436;2023-05-31T05:50:22;102830.63;;;16.63;70.24
71970;BME280;59838;52.152;5.436;2023-05-31T05:52:49;102826.16;;;16.72;70.62
71970;BME280;59838;52.152;5.436;2023-05-31T05:55:17;102826.22;;;16.87;70.23
71970;BME280;59838;52.152;5.436;2023-05-31T05:57:44;102830.53;;;16.80;70.73
71970;BME280;59838;52.152;5.436;2023-05-31T06:00:11;102834.47;;;16.76;69.58
71970;BME280;59838;52.152;5.436;2023-05-31T06:02:38;102826.09;;;16.57;70.55
71970;BME280;59838;52.152;5.436;2023-05-31T06:05:05;102827.31;;;17.16;70.68
71970;BME280;59838;52.152;5.436;2023-05-31T06:07:32;102828.41;;;17.22;68.19
71970;BME280;59838;52.152;5.436;2023-05-31T06:09:58;102823.53;;;16.95;69.71
71970;BME280;59838;52.152;5.436;2023-05-31T06:12:26;102824.75;;;17.08;69.35
71970;BME280;59838;52.152;5.436;2023-05-31T06:14:52;102827.69;;;17.28;68.99
71970;BME280;59838;52.152;5.436;2023-05-31T06:17:21;102838.88;;;17.45;69.83
71970;BME280;59838;52.152;5.436;2023-05-31T06:19:48;102829.25;;;17.52;68.15
71970;BME280;59838;52.152;5.436;2023-05-31T06:22:14;102831.72;;;17.39;69.44
71970;BME280;59838;52.152;5.436;2023-05-31T06:24:42;102838.53;;;17.78;68.67
71970;BME280;59838;52.152;5.436;2023-05-31T06:27:08;102828.66;;;17.95;67.43
71970;BME280;59838;52.152;5.436;2023-05-31T06:29:35;102827.47;;;17.67;67.56
71970;BME280;59838;52.152;5.436;2023-05-31T06:32:02;102825.03;;;17.66;68.96
71970;BME280;59838;52.152;5.436;2023-05-31T06:34:29;102820.84;;;17.86;68.04
71970;BME280;59838;52.152;5.436;2023-05-31T06:36:58;102823.41;;;18.09;68.19
71970;BME280;59838;52.152;5.436;2023-05-31T06:39:26;102825.22;;;17.94;68.88
71970;BME280;59838;52.152;5.436;2023-05-31T06:41:53;102819.66;;;18.19;66.34
71970;BME280;59838;52.152;5.436;2023-05-31T06:44:20;102819.31;;;18.07;67.90
71970;BME280;59838;52.152;5.436;2023-05-31T06:46:46;102820.00;;;18.16;66.71
71970;BME280;59838;52.152;5.436;2023-05-31T06:49:14;102826.13;;;18.38;67.49
71970;BME280;59838;52.152;5.436;2023-05-31T06:51:40;102827.91;;;18.52;65.66
71970;BME280;59838;52.152;5.436;2023-05-31T06:54:07;102824.59;;;18.65;65.23
71970;BME280;59838;52.152;5.436;2023-05-31T06:56:34;102820.19;;;18.72;65.17
71970;BME280;59838;52.152;5.436;2023-05-31T06:59:01;102822.22;;;19.13;63.83
71970;BME280;59838;52.152;5.436;2023-05-31T07:01:27;102825.88;;;19.19;63.72
71970;BME280;59838;52.152;5.436;2023-05-31T07:03:55;102820.66;;;19.26;64.07
71970;BME280;59838;52.152;5.436;2023-05-31T07:06:23;102823.44;;;19.46;61.14
71970;BME280;59838;52.152;5.436;2023-05-31T07:08:50;102821.47;;;19.54;62.65
71970;BME280;59838;52.152;5.436;2023-05-31T07:11:18;102821.88;;;19.58;62.72
71970;BME280;59838;52.152;5.436;2023-05-31T07:13:44;102814.28;;;19.42;61.85
71970;BME280;59838;52.152;5.436;2023-05-31T07:16:11;102820.25;;;19.22;62.58
71970;BME280;59838;52.152;5.436;2023-05-31T07:18:37;102818.81;;;19.20;63.90
71970;BME280;59838;52.152;5.436;2023-05-31T07:21:04;102818.88;;;19.68;63.91
71970;BME280;59838;52.152;5.436;2023-05-31T07:23:31;102817.22;;;19.88;60.81
71970;BME280;59838;52.152;5.436;2023-05-31T07:25:57;102810.94;;;19.96;60.09
71970;BME280;59838;52.152;5.436;2023-05-31T07:28:26;102817.13;;;19.75;61.57
71970;BME280;59838;52.152;5.436;2023-05-31T07:30:53;102818.28;;;19.66;62.65
71970;BME280;59838;52.152;5.436;2023-05-31T07:33:19;102816.56;;;19.80;62.23
71970;BME280;59838;52.152;5.436;2023-05-31T07:35:57;102820.06;;;19.94;60.10
71970;BME280;59838;52.152;5.436;2023-05-31T07:38:24;102823.22;;;20.31;61.28
71970;BME280;59838;52.152;5.436;2023-05-31T07:40:50;102815.44;;;19.96;60.58
71970;BME280;59838;52.152;5.436;2023-05-31T07:43:17;102814.41;;;19.97;60.91
71970;BME280;59838;52.152;5.436;2023-05-31T07:45:51;102820.34;;;19.70;61.92
71970;BME280;59838;52.152;5.436;2023-05-31T07:48:17;102819.13;;;19.38;61.60
71970;BME280;59838;52.152;5.436;2023-05-31T07:50:45;102820.66;;;18.76;63.42
71970;BME280;59838;52.152;5.436;2023-05-31T07:53:12;102809.47;;;18.31;65.91
71970;BME280;59838;52.152;5.436;2023-05-31T07:55:39;102812.41;;;18.21;67.02
71970;BME280;59838;52.152;5.436;2023-05-31T07:58:05;102806.66;;;18.17;67.77
71970;BME280;59838;52.152;5.436;2023-05-31T08:00:32;102806.38;;;18.27;66.67
71970;BME280;59838;52.152;5.436;2023-05-31T08:03:01;102797.63;;;18.41;67.63
71970;BME280;59838;52.152;5.436;2023-05-31T08:05:28;102811.75;;;18.34;67.37
71970;BME280;59838;52.152;5.436;2023-05-31T08:07:55;102800.34;;;18.12;66.92
71970;BME280;59838;52.152;5.436;2023-05-31T08:10:21;102798.78;;;18.17;69.46
71970;BME280;59838;52.152;5.436;2023-05-31T08:12:48;102795.00;;;18.41;69.53
71970;BME280;59838;52.152;5.436;2023-05-31T08:15:15;102791.19;;;18.44;67.85
71970;BME280;59838;52.152;5.436;2023-05-31T08:17:42;102798.75;;;18.32;69.19
71970;BME280;59838;52.152;5.436;2023-05-31T08:20:10;102785.78;;;18.74;70.65
71970;BME280;59838;52.152;5.436;2023-05-31T08:22:39;102785.84;;;19.02;66.93
71970;BME280;59838;52.152;5.436;2023-05-31T08:25:07;102792.88;;;18.95;68.53
71970;BME280;59838;52.152;5.436;2023-05-31T08:27:35;102788.16;;;19.12;68.84
71970;BME280;59838;52.152;5.436;2023-05-31T08:30:02;102780.72;;;19.22;66.68
71970;BME280;59838;52.152;5.436;2023-05-31T08:32:29;102784.56;;;19.20;66.37
71970;BME280;59838;52.152;5.436;2023-05-31T08:34:55;102777.03;;;18.88;67.72
71970;BME280;59838;52.152;5.436;2023-05-31T08:37:22;102776.66;;;18.91;68.78
71970;BME280;59838;52.152;5.436;2023-05-31T08:39:48;102781.72;;;18.93;68.56
71970;BME280;59838;52.152;5.436;2023-05-31T08:42:18;102769.47;;;19.07;71.39
71970;BME280;59838;52.152;5.436;2023-05-31T08:44:47;102780.69;;;19.15;68.34
71970;BME280;59838;52.152;5.436;2023-05-31T08:47:27;102781.34;;;18.96;67.11
71970;BME280;59838;52.152;5.436;2023-05-31T08:49:58;102774.47;;;19.02;68.56
71970;BME280;59838;52.152;5.436;2023-05-31T08:52:28;102773.72;;;19.08;68.64
71970;BME280;59838;52.152;5.436;2023-05-31T08:54:58;102774.75;;;19.77;66.44
71970;BME280;59838;52.152;5.436;2023-05-31T08:57:25;102772.31;;;19.40;68.32
71970;BME280;59838;52.152;5.436;2023-05-31T08:59:53;102766.84;;;19.42;66.58
71970;BME280;59838;52.152;5.436;2023-05-31T09:02:19;102769.00;;;19.66;67.90
71970;BME280;59838;52.152;5.436;2023-05-31T09:04:46;102762.31;;;19.64;65.83
71970;BME280;59838;52.152;5.436;2023-05-31T09:07:13;102773.16;;;19.82;66.85
71970;BME280;59838;52.152;5.436;2023-05-31T09:09:40;102759.38;;;19.94;65.90
71970;BME280;59838;52.152;5.436;2023-05-31T09:12:08;102767.38;;;20.14;65.25
71970;BME280;59838;52.152;5.436;2023-05-31T09:14:35;102763.13;;;20.33;66.21
71970;BME280;59838;52.152;5.436;2023-05-31T09:17:03;102758.91;;;20.45;63.61
71970;BME280;59838;52.152;5.436;2023-05-31T09:19:30;102757.41;;;20.09;65.35
71970;BME280;59838;52.152;5.436;2023-05-31T09:21:56;102763.91;;;20.13;63.88
71970;BME280;59838;52.152;5.436;2023-05-31T09:24:23;102759.59;;;19.99;66.00
71970;BME280;59838;52.152;5.436;2023-05-31T09:26:50;102748.09;;;20.20;64.96
71970;BME280;59838;52.152;5.436;2023-05-31T09:29:18;102750.16;;;20.38;63.96
71970;BME280;59838;52.152;5.436;2023-05-31T09:31:46;102749.13;;;20.25;65.38
71970;BME280;59838;52.152;5.436;2023-05-31T09:34:26;102739.38;;;20.19;64.11
71970;BME280;59838;52.152;5.436;2023-05-31T09:37:00;102746.91;;;20.36;65.28
71970;BME280;59838;52.152;5.436;2023-05-31T09:39:27;102744.31;;;20.69;64.70
71970;BME280;59838;52.152;5.436;2023-05-31T09:41:56;102746.34;;;20.74;66.76
71970;BME280;59838;52.152;5.436;2023-05-31T09:44:26;102744.84;;;21.25;62.37
71970;BME280;59838;52.152;5.436;2023-05-31T09:47:07;102741.66;;;21.03;62.02
71970;BME280;59838;52.152;5.436;2023-05-31T09:49:34;102744.50;;;20.81;63.04
71970;BME280;59838;52.152;5.436;2023-05-31T09:52:01;102732.69;;;20.97;61.02
71970;BME280;59838;52.152;5.436;2023-05-31T09:54:27;102731.91;;;20.96;59.80
71970;BME280;59838;52.152;5.436;2023-05-31T09:56:54;102735.78;;;20.74;61.04
71970;BME280;59838;52.152;5.436;2023-05-31T09:59:20;102735.13;;;20.58;63.10
71970;BME280;59838;52.152;5.436;2023-05-31T10:01:48;102729.06;;;20.91;61.20
71970;BME280;59838;52.152;5.436;2023-05-31T10:04:16;102729.06;;;20.91;60.89
71970;BME280;59838;52.152;5.436;2023-05-31T10:06:49;102728.25;;;20.84;63.38
71970;BME280;59838;52.152;5.436;2023-05-31T10:09:16;102720.50;;;20.89;61.84
71970;BME280;59838;52.152;5.436;2023-05-31T10:11:46;102721.53;;;20.95;60.30
71970;BME280;59838;52.152;5.436;2023-05-31T10:14:25;102716.00;;;21.16;62.17
71970;BME280;59838;52.152;5.436;2023-05-31T10:16:55;102719.69;;;20.95;60.67
71970;BME280;59838;52.152;5.436;2023-05-31T10:19:40;102719.63;;;21.29;60.73
71970;BME280;59838;52.152;5.436;2023-05-31T10:22:09;102713.97;;;21.70;60.50
71970;BME280;59838;52.152;5.436;2023-05-31T10:24:48;102712.78;;;21.66;60.42
71970;BME280;59838;52.152;5.436;2023-05-31T10:27:28;102703.25;;;21.59;60.58
71970;BME280;59838;52.152;5.436;2023-05-31T10:29:56;102693.88;;;21.63;58.19
71970;BME280;59838;52.152;5.436;2023-05-31T10:32:25;102698.38;;;21.55;59.65
71970;BME280;59838;52.152;5.436;2023-05-31T10:34:55;102696.47;;;22.08;58.77
71970;BME280;59838;52.152;5.436;2023-05-31T10:37:21;102696.53;;;22.01;58.00
71970;BME280;59838;52.152;5.436;2023-05-31T10:39:53;102695.84;;;22.13;58.48
71970;BME280;59838;52.152;5.436;2023-05-31T10:42:34;102691.44;;;22.25;56.86
71970;BME280;59838;52.152;5.436;2023-05-31T10:45:14;102687.41;;;22.22;55.52
71970;BME280;59838;52.152;5.436;2023-05-31T10:47:59;102687.44;;;22.16;57.13
71970;BME280;59838;52.152;5.436;2023-05-31T10:50:28;102685.41;;;22.18;57.04
71970;BME280;59838;52.152;5.436;2023-05-31T10:53:11;102676.94;;;22.02;58.04
71970;BME280;59838;52.152;5.436;2023-05-31T10:55:42;102669.75;;;22.16;56.59
71970;BME280;59838;52.152;5.436;2023-05-31T10:58:28;102669.28;;;21.94;57.88
71970;BME280;59838;52.152;5.436;2023-05-31T11:00:56;102671.06;;;22.32;56.57
71970;BME280;59838;52.152;5.436;2023-05-31T11:03:24;102668.88;;;22.48;58.07
71970;BME280;59838;52.152;5.436;2023-05-31T11:06:00;102657.84;;;22.51;57.76
71970;BME280;59838;52.152;5.436;2023-05-31T11:08:27;102665.88;;;22.44;57.19
71970;BME280;59838;52.152;5.436;2023-05-31T11:11:26;102673.72;;;22.32;58.80
71970;BME280;59838;52.152;5.436;2023-05-31T11:14:25;102660.03;;;22.35;56.05
71970;BME280;59838;52.152;5.436;2023-05-31T11:17:11;102653.13;;;22.34;57.10
71970;BME280;59838;52.152;5.436;2023-05-31T11:19:38;102646.53;;;22.80;56.32
71970;BME280;59838;52.152;5.436;2023-05-31T11:22:14;102643.47;;;22.65;54.32
71970;BME280;59838;52.152;5.436;2023-05-31T11:27:12;102645.97;;;22.35;54.81
71970;BME280;59838;52.152;5.436;2023-05-31T11:32:15;102637.03;;;22.54;56.67
71970;BME280;59838;52.152;5.436;2023-05-31T11:34:50;102635.88;;;22.69;55.44
71970;BME280;59838;52.152;5.436;2023-05-31T11:37:21;102637.81;;;22.98;54.65
71970;BME280;59838;52.152;5.436;2023-05-31T11:39:50;102629.53;;;23.07;53.66
71970;BME280;59838;52.152;5.436;2023-05-31T11:42:16;102628.09;;;22.92;54.43
71970;BME280;59838;52.152;5.436;2023-05-31T11:44:45;102632.50;;;22.80;53.39
71970;BME280;59838;52.152;5.436;2023-05-31T11:47:19;102630.00;;;22.67;53.57
71970;BME280;59838;52.152;5.436;2023-05-31T11:49:47;102632.13;;;22.76;55.34
71970;BME280;59838;52.152;5.436;2023-05-31T11:52:15;102624.63;;;23.10;51.95
71970;BME280;59838;52.152;5.436;2023-05-31T11:54:43;102621.28;;;22.96;53.20
71970;BME280;59838;52.152;5.436;2023-05-31T11:57:11;102624.16;;;22.95;56.27
71970;BME280;59838;52.152;5.436;2023-05-31T11:59:39;102621.94;;;22.92;54.68
71970;BME280;59838;52.152;5.436;2023-05-31T12:02:08;102619.47;;;22.60;54.21
71970;BME280;59838;52.152;5.436;2023-05-31T12:04:42;102613.19;;;22.54;54.50
71970;BME280;59838;52.152;5.436;2023-05-31T12:07:11;102616.88;;;22.90;52.01
71970;BME280;59838;52.152;5.436;2023-05-31T12:09:38;102609.00;;;23.21;53.64
71970;BME280;59838;52.152;5.436;2023-05-31T12:12:05;102601.97;;;23.57;51.38
71970;BME280;59838;52.152;5.436;2023-05-31T12:14:32;102604.56;;;23.75;49.44
71970;BME280;59838;52.152;5.436;2023-05-31T12:17:03;102602.97;;;23.44;50.50
71970;BME280;59838;52.152;5.436;2023-05-31T12:19:31;102594.72;;;23.22;52.07
71970;BME280;59838;52.152;5.436;2023-05-31T12:21:58;102598.03;;;23.47;49.87
71970;BME280;59838;52.152;5.436;2023-05-31T12:24:25;102580.56;;;23.28;50.66
71970;BME280;59838;52.152;5.436;2023-05-31T12:26:55;102583.03;;;23.53;52.65
71970;BME280;59838;52.152;5.436;2023-05-31T12:29:27;102579.16;;;23.79;49.69
71970;BME280;59838;52.152;5.436;2023-05-31T12:32:02;102576.25;;;23.57;50.13
71970;BME280;59838;52.152;5.436;2023-05-31T12:34:32;102576.19;;;23.33;51.73
71970;BME280;59838;52.152;5.436;2023-05-31T12:37:04;102576.22;;;23.45;51.36
71970;BME280;59838;52.152;5.436;2023-05-31T12:39:31;102569.66;;;23.48;52.49
71970;BME280;59838;52.152;5.436;2023-05-31T12:41:57;102572.97;;;23.43;50.61
71970;BME280;59838;52.152;5.436;2023-05-31T12:44:25;102569.19;;;23.39;50.55
71970;BME280;59838;52.152;5.436;2023-05-31T12:47:00;102569.84;;;23.77;52.06
71970;BME280;59838;52.152;5.436;2023-05-31T12:49:28;102566.50;;;24.05;48.94
71970;BME280;59838;52.152;5.436;2023-05-31T12:54:26;102559.38;;;23.40;50.44
71970;BME280;59838;52.152;5.436;2023-05-31T12:56:53;102561.47;;;23.49;50.65
71970;BME280;59838;52.152;5.436;2023-05-31T12:59:20;102558.66;;;23.32;50.15
71970;BME280;59838;52.152;5.436;2023-05-31T13:01:46;102559.84;;;23.48;50.54
71970;BME280;59838;52.152;5.436;2023-05-31T13:04:13;102553.22;;;23.81;51.43
71970;BME280;59838;52.152;5.436;2023-05-31T13:06:40;102559.22;;;23.77;50.56
71970;BME280;59838;52.152;5.436;2023-05-31T13:09:07;102553.31;;;23.74;50.40
71970;BME280;59838;52.152;5.436;2023-05-31T13:11:38;102553.66;;;23.66;48.61